Time;durP1;ratioP1;P1;durP2;ratioP2;P2;SDS_P1;SDS_P2;PMS_P1;PMS_P2;Temp;Humidity;BMP_temperature;BMP_pressure;BME280_temperature;BME280_humidity;BME280_pressure;Samples;Min_cycle;Max_cycle;Signal;HPM_P1;HPM_P2
2021/10/08 00:02:05;;;;;;;8.63;4.22;;;;;;;6.07;100.00;99901.44;5013354;28;20093;-68
2021/10/08 00:04:30;;;;;;;6.85;4.40;;;;;;;6.06;100.00;99889.00;5014497;28;20022;-69
2021/10/08 00:06:55;;;;;;;6.10;4.65;;;;;;;6.02;100.00;99905.56;5014449;28;20029;-69
2021/10/08 00:09:22;;;;;;;6.65;4.75;;;;;;;5.90;100.00;99894.97;5012726;28;20022;-69
2021/10/08 00:11:48;;;;;;;8.88;4.53;;;;;;;5.81;100.00;99893.16;5010744;28;20053;-69
2021/10/08 00:14:13;;;;;;;5.68;4.28;;;;;;;5.79;100.00;99897.84;5011722;28;20103;-69
2021/10/08 00:16:39;;;;;;;7.72;4.32;;;;;;;5.88;100.00;99907.69;5014223;28;20037;-68
2021/10/08 00:19:04;;;;;;;7.65;4.03;;;;;;;5.97;100.00;99899.78;5012884;28;20479;-68
2021/10/08 00:21:29;;;;;;;5.25;3.78;;;;;;;5.90;100.00;99902.19;5013181;28;20706;-68
2021/10/08 00:23:55;;;;;;;6.00;4.13;;;;;;;5.78;100.00;99874.63;5014061;28;20025;-68
2021/10/08 00:26:20;;;;;;;7.57;4.60;;;;;;;5.79;100.00;99870.09;5011551;28;20485;-69
2021/10/08 00:28:46;;;;;;;8.07;5.07;;;;;;;6.15;100.00;99900.69;5013490;28;20036;-69
2021/10/08 00:31:11;;;;;;;6.18;4.10;;;;;;;5.99;100.00;99879.84;5013210;28;20095;-68
2021/10/08 00:33:37;;;;;;;9.75;4.38;;;;;;;5.97;100.00;99883.66;5013687;28;20021;-68
2021/10/08 00:36:02;;;;;;;10.63;4.65;;;;;;;6.03;100.00;99889.31;5013683;28;20084;-68
2021/10/08 00:38:28;;;;;;;7.70;4.13;;;;;;;5.93;100.00;99899.19;5011880;28;20029;-68
2021/10/08 00:40:53;;;;;;;6.68;3.30;;;;;;;5.71;100.00;99870.84;5011948;28;20033;-68
2021/10/08 00:43:20;;;;;;;6.32;3.63;;;;;;;5.78;100.00;99897.97;5012339;28;20026;-68
2021/10/08 00:45:46;;;;;;;6.32;3.97;;;;;;;5.82;100.00;99897.53;5013781;28;20030;-69
2021/10/08 00:48:12;;;;;;;6.30;4.05;;;;;;;5.73;100.00;99898.41;5011683;28;20075;-69
2021/10/08 00:50:40;;;;;;;7.47;4.72;;;;;;;5.74;100.00;99894.75;5014233;28;20025;-68
2021/10/08 00:53:06;;;;;;;7.13;4.00;;;;;;;5.79;100.00;99895.16;5011602;28;20029;-68
2021/10/08 00:55:33;;;;;;;7.72;4.32;;;;;;;5.79;100.00;99879.03;5012218;28;20025;-68
2021/10/08 00:57:59;;;;;;;6.75;3.95;;;;;;;5.77;100.00;99886.38;5009272;28;20057;-68
2021/10/08 01:00:26;;;;;;;5.72;3.90;;;;;;;5.73;100.00;99887.66;5002153;28;20026;-68
2021/10/08 01:02:51;;;;;;;6.47;3.40;;;;;;;5.78;100.00;99896.13;5013811;28;20055;-68
2021/10/08 01:05:16;;;;;;;6.05;3.47;;;;;;;5.72;100.00;99881.44;5011309;28;20057;-68
2021/10/08 01:07:42;;;;;;;5.63;3.75;;;;;;;5.66;100.00;99871.31;5011304;28;20487;-68
2021/10/08 01:10:08;;;;;;;5.70;3.72;;;;;;;5.75;100.00;99891.06;5011963;28;20025;-68
2021/10/08 01:12:34;;;;;;;5.85;4.28;;;;;;;5.66;100.00;99878.50;5026317;28;20056;-69
2021/10/08 01:15:00;;;;;;;12.23;4.43;;;;;;;5.69;100.00;99880.91;5009462;28;20029;-68
2021/10/08 01:17:26;;;;;;;5.18;3.88;;;;;;;5.59;100.00;99856.75;5011693;28;20463;-69
2021/10/08 01:19:52;;;;;;;11.27;4.50;;;;;;;5.72;100.00;99884.13;5011711;28;20037;-69
2021/10/08 01:22:18;;;;;;;6.38;4.15;;;;;;;5.68;100.00;99876.50;5011485;28;20471;-68
2021/10/08 01:24:43;;;;;;;5.60;4.10;;;;;;;5.62;100.00;99879.78;5012542;28;20029;-69
2021/10/08 01:27:09;;;;;;;7.38;4.38;;;;;;;5.69;100.00;99875.53;5012511;28;20037;-69
2021/10/08 01:29:51;;;;;;;7.00;3.40;;;;;;;5.57;100.00;99871.31;5006851;28;20037;-68
2021/10/08 01:32:16;;;;;;;7.45;3.85;;;;;;;5.39;100.00;99864.00;5012901;28;20092;-68
2021/10/08 01:34:41;;;;;;;6.07;4.22;;;;;;;5.30;100.00;99847.94;5009646;28;20034;-68
2021/10/08 01:37:07;;;;;;;5.57;3.92;;;;;;;5.31;100.00;99865.72;5012449;28;20399;-68
2021/10/08 01:39:32;;;;;;;5.20;3.85;;;;;;;5.46;100.00;99864.28;5011450;28;20029;-67
2021/10/08 01:41:57;;;;;;;6.57;3.90;;;;;;;5.41;100.00;99877.28;4997343;28;20034;-68
2021/10/08 01:44:23;;;;;;;6.07;3.38;;;;;;;5.42;100.00;99866.41;5011978;28;20494;-68
2021/10/08 01:46:49;;;;;;;6.82;4.00;;;;;;;5.36;100.00;99864.28;5012336;28;20026;-68
2021/10/08 01:49:15;;;;;;;5.93;4.05;;;;;;;5.41;100.00;99880.81;5011756;28;20022;-68
2021/10/08 01:51:40;;;;;;;9.23;4.15;;;;;;;5.33;100.00;99877.16;5004490;28;20507;-68
2021/10/08 01:54:06;;;;;;;6.85;3.72;;;;;;;5.09;100.00;99845.41;4993061;28;20105;-68
2021/10/08 01:56:31;;;;;;;8.50;3.78;;;;;;;4.94;100.00;99840.47;4992985;28;20057;-68
2021/10/08 01:58:58;;;;;;;14.57;3.78;;;;;;;5.07;100.00;99866.16;5002978;28;20068;-68
2021/10/08 02:01:23;;;;;;;6.47;3.58;;;;;;;5.14;100.00;99868.13;5012023;28;20041;-68
2021/10/08 02:03:50;;;;;;;6.85;3.15;;;;;;;5.11;100.00;99871.13;5011444;28;20030;-68
2021/10/08 02:06:16;;;;;;;8.38;3.42;;;;;;;5.09;100.00;99872.25;5004537;28;20022;-68
2021/10/08 02:08:41;;;;;;;4.85;3.42;;;;;;;5.08;100.00;99857.13;5001698;28;20559;-70
2021/10/08 02:11:07;;;;;;;7.70;3.50;;;;;;;4.96;100.00;99846.53;5011390;28;20036;-70
2021/10/08 02:13:32;;;;;;;6.68;5.20;;;;;;;5.04;100.00;99864.63;5011956;28;20036;-70
2021/10/08 02:15:57;;;;;;;8.60;5.45;;;;;;;4.96;100.00;99856.44;5010933;28;20033;-70
2021/10/08 02:18:23;;;;;;;6.28;4.63;;;;;;;4.97;100.00;99875.03;5010430;28;20025;-70
2021/10/08 02:20:48;;;;;;;7.13;4.47;;;;;;;4.94;100.00;99875.34;5011988;28;20034;-70
2021/10/08 02:23:13;;;;;;;5.28;3.13;;;;;;;4.90;100.00;99871.25;5012251;28;20021;-70
2021/10/08 02:25:39;;;;;;;4.53;2.90;;;;;;;4.89;100.00;99874.91;5010578;28;20036;-70
2021/10/08 02:28:04;;;;;;;4.97;3.10;;;;;;;4.76;100.00;99842.16;5005973;28;20033;-70
2021/10/08 02:30:29;;;;;;;8.55;3.20;;;;;;;5.03;100.00;99874.50;5010966;28;20128;-69
2021/10/08 02:32:54;;;;;;;7.50;3.05;;;;;;;5.19;100.00;99878.44;5012770;28;20737;-69
2021/10/08 02:35:20;;;;;;;4.78;3.20;;;;;;;5.19;100.00;99873.94;5016255;28;20021;-69
2021/10/08 02:37:45;;;;;;;6.60;3.17;;;;;;;5.13;100.00;99865.59;5015611;28;20507;-69
2021/10/08 02:40:11;;;;;;;7.63;3.90;;;;;;;5.14;100.00;99878.03;5014614;28;20155;-69
2021/10/08 02:42:36;;;;;;;3.95;3.00;;;;;;;5.02;100.00;99872.78;5011701;28;20396;-69
2021/10/08 02:45:03;;;;;;;6.47;3.03;;;;;;;5.05;100.00;99872.50;5001333;28;20033;-69
2021/10/08 02:47:28;;;;;;;6.80;3.10;;;;;;;5.22;100.00;99870.13;5014106;28;20134;-70
2021/10/08 02:49:53;;;;;;;7.90;2.88;;;;;;;5.18;100.00;99874.06;5013723;28;20495;-70
2021/10/08 02:52:19;;;;;;;4.72;3.20;;;;;;;5.14;100.00;99869.97;5016155;28;20483;-69
2021/10/08 02:54:44;;;;;;;5.25;3.13;;;;;;;5.13;100.00;99869.09;5015341;28;20022;-69
2021/10/08 02:57:09;;;;;;;8.07;3.20;;;;;;;5.12;100.00;99871.94;5015962;28;20503;-69
2021/10/08 02:59:35;;;;;;;4.93;3.40;;;;;;;5.00;100.00;99858.69;5012994;28;20030;-69
2021/10/08 03:02:00;;;;;;;5.78;3.33;;;;;;;5.04;100.00;99870.81;5015325;28;20057;-69
2021/10/08 03:04:25;;;;;;;7.38;3.58;;;;;;;5.01;100.00;99873.78;5015426;28;20042;-70
2021/10/08 03:06:51;;;;;;;6.68;3.92;;;;;;;4.89;100.00;99856.13;5015644;28;20391;-70
2021/10/08 03:09:16;;;;;;;7.80;3.88;;;;;;;4.96;100.00;99872.53;5013434;28;20025;-70
2021/10/08 03:11:41;;;;;;;6.30;3.45;;;;;;;4.69;100.00;99836.53;5010965;28;20030;-70
2021/10/08 03:14:07;;;;;;;6.70;3.58;;;;;;;4.92;100.00;99873.78;5030902;28;20040;-70
2021/10/08 03:16:33;;;;;;;4.78;3.10;;;;;;;4.93;100.00;99870.97;5014581;28;20438;-69
2021/10/08 03:21:29;;;;;;;9.60;3.88;;;;;;;4.93;100.00;99881.69;5033334;28;20140;-69
2021/10/08 03:23:54;;;;;;;5.90;4.03;;;;;;;4.88;100.00;99869.69;5033997;28;20037;-69
2021/10/08 03:26:19;;;;;;;5.85;3.85;;;;;;;4.87;100.00;99890.28;5033995;28;20167;-69
2021/10/08 03:28:45;;;;;;;5.75;3.65;;;;;;;4.69;100.00;99870.50;5032738;28;20040;-69
2021/10/08 03:31:11;;;;;;;5.05;3.80;;;;;;;4.69;100.00;99863.34;5034196;28;20179;-69
2021/10/08 03:33:36;;;;;;;7.45;4.35;;;;;;;4.86;100.00;99880.56;5032300;28;20081;-71
2021/10/08 03:36:02;;;;;;;6.93;4.22;;;;;;;4.83;100.00;99889.72;5033619;28;20033;-69
2021/10/08 03:38:31;;;;;;;8.27;4.82;;;;;;;4.78;100.00;99886.63;5030784;28;20057;-71
2021/10/08 03:43:27;;;;;;;7.65;4.82;;;;;;;4.42;100.00;99873.84;5030445;28;20123;-70
2021/10/08 03:45:54;;;;;;;10.45;4.80;;;;;;;4.53;100.00;99897.84;5034083;28;20057;-70
2021/10/08 03:48:33;;;;;;;6.97;4.32;;;;;;;4.45;100.00;99886.97;5032001;28;20051;-70
2021/10/08 03:51:03;;;;;;;5.03;3.60;;;;;;;4.43;100.00;99897.84;5026339;28;20509;-71
2021/10/08 03:53:28;;;;;;;5.97;3.88;;;;;;;4.45;100.00;99901.22;5016902;28;20033;-72
2021/10/08 03:55:54;;;;;;;7.40;4.05;;;;;;;4.48;100.00;99890.25;5035039;28;20391;-71
2021/10/08 03:58:19;;;;;;;7.90;4.55;;;;;;;4.48;100.00;99871.50;5032639;28;20025;-69
2021/10/08 04:00:44;;;;;;;6.28;4.40;;;;;;;4.68;100.00;99895.63;5033181;28;20409;-70
2021/10/08 04:03:10;;;;;;;5.82;4.07;;;;;;;4.68;100.00;99885.75;5032939;28;20033;-70
2021/10/08 04:05:35;;;;;;;7.25;3.92;;;;;;;4.78;100.00;99888.44;5033694;28;20038;-70
2021/10/08 04:08:00;;;;;;;6.68;3.88;;;;;;;4.59;100.00;99871.34;5032009;28;20064;-71
2021/10/08 04:10:26;;;;;;;9.95;4.15;;;;;;;4.73;100.00;99866.56;5015633;28;20037;-69
2021/10/08 04:12:51;;;;;;;7.10;4.18;;;;;;;4.81;100.00;99894.38;5033445;28;20048;-69
2021/10/08 04:15:16;;;;;;;8.57;4.82;;;;;;;4.76;100.00;99885.06;5032146;28;20104;-76
2021/10/08 04:17:42;;;;;;;5.50;3.83;;;;;;;4.91;100.00;99896.22;5033705;28;20030;-76
2021/10/08 04:20:07;;;;;;;11.63;4.40;;;;;;;4.69;100.00;99892.81;5028556;28;20044;-74
2021/10/08 04:22:33;;;;;;;7.03;3.85;;;;;;;4.65;100.00;99885.19;5030096;28;20072;-75
2021/10/08 04:24:58;;;;;;;6.30;3.38;;;;;;;4.40;100.00;99857.91;5031085;28;20025;-75
2021/10/08 04:27:23;;;;;;;7.65;3.88;;;;;;;4.37;100.00;99876.94;5033761;28;20048;-76
2021/10/08 04:29:49;;;;;;;8.13;4.60;;;;;;;4.32;100.00;99882.75;5034222;28;20063;-75
2021/10/08 04:32:14;;;;;;;7.70;4.05;;;;;;;4.29;100.00;99890.19;5035022;28;20493;-77
2021/10/08 04:34:39;;;;;;;11.45;5.18;;;;;;;4.41;100.00;99864.97;5034688;28;20084;-76
2021/10/08 04:37:05;;;;;;;6.95;4.15;;;;;;;4.41;100.00;99873.03;5034259;28;20033;-75
2021/10/08 04:39:30;;;;;;;8.27;3.60;;;;;;;4.42;100.00;99872.03;5033436;28;20072;-76
2021/10/08 04:41:55;;;;;;;6.03;3.78;;;;;;;4.45;100.00;99873.56;5025582;28;20033;-75
2021/10/08 04:44:21;;;;;;;5.75;3.65;;;;;;;4.33;100.00;99859.47;5024827;28;20025;-77
2021/10/08 04:46:46;;;;;;;7.15;3.67;;;;;;;4.51;100.00;99889.13;5022477;28;20471;-77
2021/10/08 04:49:12;;;;;;;7.28;3.70;;;;;;;4.55;100.00;99891.38;5032489;28;20120;-73
2021/10/08 04:51:37;;;;;;;5.45;3.40;;;;;;;4.39;100.00;99874.97;5030316;28;20036;-75
2021/10/08 04:54:03;;;;;;;9.57;3.22;;;;;;;4.26;100.00;99879.75;5032965;28;20383;-76
2021/10/08 04:56:32;;;;;;;5.20;3.47;;;;;;;4.28;100.00;99893.84;5034385;28;20029;-74
2021/10/08 04:58:58;;;;;;;8.57;4.00;;;;;;;4.23;100.00;99866.63;5033412;28;20064;-76
2021/10/08 05:01:23;;;;;;;6.20;3.60;;;;;;;4.23;100.00;99898.78;5031114;28;20037;-76
2021/10/08 05:03:48;;;;;;;7.03;4.45;;;;;;;4.05;100.00;99871.78;5026239;28;20017;-75
2021/10/08 05:06:14;;;;;;;6.93;4.47;;;;;;;4.35;100.00;99895.84;5033058;28;20120;-78
2021/10/08 05:08:39;;;;;;;9.23;5.15;;;;;;;4.25;100.00;99873.53;5024101;28;20036;-68
2021/10/08 05:11:05;;;;;;;9.65;4.90;;;;;;;4.33;100.00;99865.66;5031801;28;20045;-68
2021/10/08 05:13:31;;;;;;;10.48;4.20;;;;;;;4.44;100.00;99879.94;5032411;28;20031;-68
2021/10/08 05:15:56;;;;;;;5.50;4.00;;;;;;;4.33;100.00;99887.09;5033972;28;20025;-68
2021/10/08 05:18:21;;;;;;;5.88;3.60;;;;;;;4.04;100.00;99865.59;5032357;28;20034;-68
2021/10/08 05:20:47;;;;;;;5.22;3.85;;;;;;;4.21;100.00;99898.88;5032286;28;20044;-68
2021/10/08 05:23:12;;;;;;;8.82;4.40;;;;;;;4.30;100.00;99879.34;5021317;28;20037;-68
2021/10/08 05:25:38;;;;;;;7.57;4.13;;;;;;;4.27;100.00;99886.78;5024308;28;20059;-70
2021/10/08 05:28:04;;;;;;;8.43;4.15;;;;;;;4.19;100.00;99874.06;5026999;28;20029;-70
2021/10/08 05:30:30;;;;;;;7.03;3.97;;;;;;;3.93;100.00;99855.81;5021693;28;20116;-70
2021/10/08 05:32:55;;;;;;;7.07;4.78;;;;;;;4.30;100.00;99881.19;5048837;28;20071;-70
2021/10/08 05:35:20;;;;;;;10.95;5.03;;;;;;;4.36;100.00;99885.97;5022635;28;20030;-70
2021/10/08 05:37:45;;;;;;;7.28;4.50;;;;;;;4.46;100.00;99881.50;5013967;28;20030;-70
2021/10/08 05:40:11;;;;;;;7.55;4.97;;;;;;;4.34;100.00;99866.50;5031832;28;20033;-70
2021/10/08 05:42:37;;;;;;;9.73;5.28;;;;;;;4.32;100.00;99863.97;5030271;28;20037;-70
2021/10/08 05:45:03;;;;;;;8.82;4.72;;;;;;;4.49;100.00;99891.94;5031658;28;20018;-70
2021/10/08 05:47:28;;;;;;;9.63;5.13;;;;;;;4.50;100.00;99896.28;5025068;28;20068;-71
2021/10/08 05:49:54;;;;;;;12.90;5.25;;;;;;;4.54;100.00;99888.84;5020185;28;20030;-70
2021/10/08 05:52:19;;;;;;;9.75;5.30;;;;;;;4.50;100.00;99893.63;5030458;28;20021;-70
2021/10/08 05:54:45;;;;;;;9.85;5.10;;;;;;;4.45;100.00;99881.63;5024335;28;20068;-70
2021/10/08 05:57:10;;;;;;;15.07;6.55;;;;;;;4.66;100.00;99893.06;5025852;28;20026;-71
2021/10/08 05:59:36;;;;;;;18.67;6.80;;;;;;;4.60;100.00;99859.63;5027293;28;20030;-70
2021/10/08 06:02:02;;;;;;;10.98;6.45;;;;;;;5.54;100.00;99885.03;5030368;28;20493;-70
2021/10/08 06:04:27;;;;;;;8.38;5.35;;;;;;;7.07;96.38;99896.16;5031548;28;20033;-70
2021/10/08 06:06:53;;;;;;;10.70;5.40;;;;;;;8.63;86.83;99889.94;5031480;28;20059;-69
2021/10/08 06:09:18;;;;;;;7.40;4.65;;;;;;;9.58;82.34;99887.66;5029870;28;20032;-70
2021/10/08 06:11:43;;;;;;;7.75;4.68;;;;;;;10.87;78.70;99878.44;5026579;28;20056;-70
2021/10/08 06:14:09;;;;;;;5.70;4.18;;;;;;;11.98;72.67;99860.75;5028632;28;20116;-69
2021/10/08 06:16:34;;;;;;;6.57;4.43;;;;;;;12.82;66.58;99879.38;5028178;28;20445;-69
2021/10/08 06:18:59;;;;;;;6.78;4.20;;;;;;;12.90;63.93;99855.66;5030728;28;20033;-69
2021/10/08 06:21:25;;;;;;;9.80;3.90;;;;;;;13.12;63.22;99885.53;5030286;28;20022;-69
2021/10/08 06:23:50;;;;;;;6.60;4.10;;;;;;;13.72;60.25;99878.78;5032421;28;20024;-68
2021/10/08 06:26:16;;;;;;;6.38;4.40;;;;;;;14.58;58.11;99869.50;5032129;28;20526;-69
2021/10/08 06:28:41;;;;;;;8.55;4.28;;;;;;;15.36;57.40;99882.72;5028234;28;20034;-67
2021/10/08 06:31:06;;;;;;;5.68;3.45;;;;;;;15.62;53.52;99865.53;5031139;28;20044;-68
2021/10/08 06:33:32;;;;;;;6.72;3.45;;;;;;;16.09;52.97;99877.25;5030793;28;20026;-70
2021/10/08 06:35:57;;;;;;;6.80;3.75;;;;;;;15.59;53.27;99883.16;5030894;28;20386;-69
2021/10/08 06:38:22;;;;;;;5.25;3.75;;;;;;;16.44;51.11;99881.34;5031770;28;20021;-68
2021/10/08 06:40:48;;;;;;;5.78;3.78;;;;;;;16.56;50.40;99884.28;5031917;28;20067;-68
2021/10/08 06:43:13;;;;;;;5.07;3.60;;;;;;;17.15;48.29;99882.31;5026201;28;20427;-69
2021/10/08 06:45:38;;;;;;;6.40;3.67;;;;;;;17.64;47.67;99885.34;5030936;28;20510;-69
2021/10/08 06:48:04;;;;;;;7.85;3.78;;;;;;;18.72;46.24;99873.09;5026729;28;20033;-70
2021/10/08 06:50:30;;;;;;;7.72;4.18;;;;;;;18.94;46.11;99879.78;5031498;28;20022;-68
2021/10/08 06:52:55;;;;;;;9.80;5.35;;;;;;;18.53;45.51;99873.09;5032128;28;20107;-69
2021/10/08 06:55:21;;;;;;;7.85;4.07;;;;;;;17.89;46.93;99872.53;5031966;28;20041;-69
2021/10/08 06:57:47;;;;;;;9.90;4.07;;;;;;;18.10;46.89;99862.19;5029878;28;20057;-68
2021/10/08 07:00:13;;;;;;;8.23;4.60;;;;;;;17.38;48.40;99876.28;5031987;28;20187;-70
2021/10/08 07:02:51;;;;;;;6.80;4.25;;;;;;;17.35;48.82;99887.66;5031669;28;20486;-69
2021/10/08 07:05:19;;;;;;;6.28;4.10;;;;;;;17.48;49.57;99882.09;5027623;28;20052;-69
2021/10/08 07:07:45;;;;;;;6.57;3.90;;;;;;;17.70;49.21;99870.75;5013384;28;20070;-68
2021/10/08 07:10:10;;;;;;;6.25;4.28;;;;;;;17.63;48.95;99862.63;5031451;28;20461;-69
2021/10/08 07:12:36;;;;;;;9.38;4.13;;;;;;;17.86;47.73;99883.06;5034647;28;20441;-69
2021/10/08 07:15:05;;;;;;;6.43;4.22;;;;;;;17.08;49.87;99886.97;5030474;28;20120;-68
2021/10/08 07:17:30;;;;;;;5.75;3.80;;;;;;;17.39;50.48;99880.69;5031348;28;20037;-67
2021/10/08 07:19:56;;;;;;;6.03;3.80;;;;;;;18.43;47.20;99882.94;5013525;28;20030;-69
2021/10/08 07:22:21;;;;;;;7.50;4.10;;;;;;;18.28;47.91;99837.56;5019959;28;20064;-70
2021/10/08 07:24:49;;;;;;;6.75;4.13;;;;;;;18.68;46.46;99863.63;5034026;28;20112;-69
2021/10/08 07:27:15;;;;;;;7.63;3.60;;;;;;;18.80;46.44;99884.59;5034311;28;20133;-70
2021/10/08 07:29:41;;;;;;;10.20;4.32;;;;;;;19.26;45.60;99890.53;5018842;28;20029;-69
2021/10/08 07:32:06;;;;;;;7.93;3.97;;;;;;;19.45;46.02;99863.84;5020975;28;20387;-70
2021/10/08 07:34:31;;;;;;;11.73;4.10;;;;;;;19.86;45.36;99881.38;5036111;28;20390;-68
2021/10/08 07:36:57;;;;;;;6.95;4.25;;;;;;;18.62;47.17;99851.69;5035113;28;20033;-69
2021/10/08 07:39:22;;;;;;;9.15;3.97;;;;;;;19.64;46.06;99884.63;5029848;28;20084;-70
2021/10/08 07:41:48;;;;;;;9.77;4.22;;;;;;;20.49;44.48;99877.03;5018353;28;20036;-70
2021/10/08 07:44:13;;;;;;;8.00;4.20;;;;;;;20.48;43.78;99872.59;5030082;28;20029;-68
2021/10/08 07:46:38;;;;;;;7.88;4.15;;;;;;;20.63;44.09;99875.69;5029052;28;20033;-65
2021/10/08 07:49:04;;;;;;;7.00;4.03;;;;;;;21.98;41.25;99859.44;5025197;28;20027;-67
2021/10/08 07:51:30;;;;;;;6.68;3.53;;;;;;;23.02;39.64;99870.75;5032181;28;20109;-65
2021/10/08 07:53:56;;;;;;;7.55;3.65;;;;;;;23.69;38.25;99870.31;5035297;28;20696;-73
2021/10/08 07:56:21;;;;;;;5.43;3.80;;;;;;;22.85;39.92;99868.91;5028997;28;20021;-73
2021/10/08 07:58:47;;;;;;;11.77;4.05;;;;;;;23.21;39.69;99869.28;5016453;28;20022;-70
2021/10/08 08:01:12;;;;;;;5.82;3.85;;;;;;;24.18;37.37;99863.75;5022076;28;20483;-69
2021/10/08 08:03:38;;;;;;;4.43;3.53;;;;;;;24.24;37.62;99852.47;5033625;28;20112;-67
2021/10/08 08:06:04;;;;;;;7.32;4.07;;;;;;;23.77;38.23;99855.22;5034239;28;20039;-71
2021/10/08 08:08:29;;;;;;;4.93;3.78;;;;;;;23.97;38.34;99846.22;5034774;28;20108;-72
2021/10/08 08:10:55;;;;;;;8.93;4.22;;;;;;;24.24;37.88;99874.59;5031905;28;20061;-74
2021/10/08 08:13:20;;;;;;;5.18;4.10;;;;;;;23.44;39.87;99847.97;5033630;28;20033;-75
2021/10/08 08:15:46;;;;;;;6.50;3.97;;;;;;;24.58;38.17;99863.19;5033596;28;20128;-69
2021/10/08 08:18:11;;;;;;;5.75;3.85;;;;;;;24.58;38.27;99857.66;5025213;28;20112;-72
2021/10/08 08:20:36;;;;;;;5.88;3.80;;;;;;;23.11;40.96;99861.75;5026074;28;20022;-69
2021/10/08 08:23:02;;;;;;;7.88;3.53;;;;;;;22.74;42.20;99858.81;5028595;28;20025;-73
2021/10/08 08:25:27;;;;;;;6.03;3.42;;;;;;;21.85;43.67;99859.75;5028918;28;20156;-75
2021/10/08 08:27:53;;;;;;;4.47;3.80;;;;;;;20.43;47.06;99875.22;5020662;28;20167;-71
2021/10/08 08:30:18;;;;;;;5.40;4.03;;;;;;;17.72;53.73;99865.91;5032174;28;20029;-72
2021/10/08 08:32:43;;;;;;;7.47;4.00;;;;;;;17.77;55.16;99860.59;5033709;28;20029;-73
2021/10/08 08:35:09;;;;;;;6.38;4.38;;;;;;;17.24;56.72;99864.59;5018234;28;20029;-72
2021/10/08 08:37:35;;;;;;;6.43;4.45;;;;;;;17.11;57.94;99874.75;5032596;28;20402;-71
2021/10/08 08:40:05;;;;;;;6.80;4.68;;;;;;;16.59;59.48;99867.44;5021484;28;20028;-72
2021/10/08 08:42:30;;;;;;;7.15;4.70;;;;;;;16.39;60.04;99872.97;5025455;28;20071;-74
2021/10/08 08:44:56;;;;;;;8.70;4.40;;;;;;;16.58;60.55;99881.31;5032966;28;20033;-72
2021/10/08 08:47:21;;;;;;;6.30;4.22;;;;;;;16.33;61.93;99846.53;5018361;28;20021;-73
2021/10/08 08:49:48;;;;;;;8.23;4.28;;;;;;;16.60;62.46;99879.19;5033777;28;20036;-73
2021/10/08 08:52:14;;;;;;;8.55;4.28;;;;;;;16.52;62.94;99872.09;5028981;28;20112;-71
2021/10/08 08:54:41;;;;;;;5.82;4.43;;;;;;;16.31;63.48;99859.53;5030249;28;20100;-70
2021/10/08 08:57:18;;;;;;;8.40;4.30;;;;;;;16.40;64.14;99858.28;5029471;28;20018;-71
2021/10/08 09:00:00;;;;;;;6.05;4.35;;;;;;;16.30;63.38;99873.44;5027530;28;20386;-69
2021/10/08 09:02:32;;;;;;;5.88;4.18;;;;;;;16.15;65.13;99876.41;5025261;28;20022;-75
2021/10/08 09:04:58;;;;;;;6.78;4.03;;;;;;;16.23;64.85;99856.22;5021789;28;20549;-74
2021/10/08 09:07:30;;;;;;;6.68;4.18;;;;;;;16.15;65.24;99866.31;5031767;28;20025;-74
2021/10/08 09:10:08;;;;;;;8.48;4.07;;;;;;;15.62;66.83;99865.53;5031752;28;20112;-72
2021/10/08 09:12:34;;;;;;;6.78;4.00;;;;;;;15.46;67.05;99870.34;5028920;28;20026;-72
2021/10/08 09:14:59;;;;;;;10.45;4.28;;;;;;;15.42;67.19;99874.53;5030562;28;20391;-73
2021/10/08 09:17:27;;;;;;;6.78;4.40;;;;;;;15.25;67.12;99860.47;5031722;28;20045;-72
2021/10/08 09:20:07;;;;;;;7.93;4.85;;;;;;;15.09;68.55;99878.06;5053950;22;20092;-72
2021/10/08 09:22:52;;;;;;;5.82;4.20;;;;;;;15.14;68.20;99877.41;5042990;28;20044;-70
2021/10/08 09:25:38;;;;;;;9.43;4.22;;;;;;;14.94;69.17;99879.28;5052821;28;20048;-70
2021/10/08 09:28:09;;;;;;;6.85;4.13;;;;;;;14.61;69.98;99874.53;5054292;28;20033;-70
2021/10/08 09:30:50;;;;;;;8.00;4.65;;;;;;;14.54;70.52;99874.53;5046818;28;20616;-70
2021/10/08 09:33:19;;;;;;;6.35;4.50;;;;;;;14.37;71.30;99879.44;5050187;28;20038;-70
2021/10/08 09:35:49;;;;;;;6.90;4.70;;;;;;;14.29;72.06;99874.16;5053837;28;20034;-73
2021/10/08 09:38:16;;;;;;;8.20;5.07;;;;;;;14.36;72.20;99880.47;5050555;28;20075;-66
2021/10/08 09:40:48;;;;;;;8.68;4.57;;;;;;;14.38;72.36;99875.69;5045361;28;20085;-67
2021/10/08 09:43:34;;;;;;;6.50;4.80;;;;;;;14.27;73.61;99878.94;5029840;28;20037;-68
2021/10/08 09:46:01;;;;;;;5.82;4.18;;;;;;;14.46;71.70;99878.22;5028454;28;20581;-68
2021/10/08 09:48:43;;;;;;;6.63;3.85;;;;;;;14.53;72.15;99881.00;5036966;28;20087;-68
2021/10/08 09:51:13;;;;;;;7.53;3.85;;;;;;;14.75;70.87;99875.44;5032100;28;20080;-67
2021/10/08 09:53:48;;;;;;;5.95;4.18;;;;;;;14.87;69.99;99873.78;5031724;28;20033;-67
2021/10/08 09:56:35;;;;;;;9.07;4.63;;;;;;;15.20;69.93;99878.50;5030319;28;20605;-67
2021/10/08 09:59:02;;;;;;;8.85;4.38;;;;;;;15.27;69.29;99880.19;5030961;28;20040;-69
2021/10/08 10:01:30;;;;;;;6.20;4.18;;;;;;;15.07;69.76;99880.16;5030619;28;20055;-67
2021/10/08 10:03:56;;;;;;;9.27;5.07;;;;;;;15.15;69.52;99879.13;5032198;28;20029;-67
2021/10/08 10:06:22;;;;;;;7.72;4.78;;;;;;;15.07;70.30;99885.59;5032051;28;20032;-66
2021/10/08 10:08:48;;;;;;;6.55;4.90;;;;;;;14.79;70.30;99860.38;5032042;28;20049;-66
2021/10/08 10:11:19;;;;;;;8.77;4.70;;;;;;;14.99;69.52;99880.34;5034786;28;20021;-66
2021/10/08 10:13:45;;;;;;;9.13;4.90;;;;;;;15.07;70.18;99876.59;5031094;28;20037;-66
2021/10/08 10:16:14;;;;;;;6.28;4.43;;;;;;;14.94;70.56;99871.09;5031784;28;20064;-67
2021/10/08 10:18:40;;;;;;;9.13;5.20;;;;;;;15.22;69.47;99879.09;5032284;28;20144;-66
2021/10/08 10:21:05;;;;;;;7.97;4.38;;;;;;;15.26;69.30;99869.47;5032572;28;20303;-66
2021/10/08 10:23:31;;;;;;;7.50;4.28;;;;;;;15.51;68.38;99873.28;5031950;28;20021;-66
2021/10/08 10:25:57;;;;;;;6.82;4.10;;;;;;;15.59;66.39;99865.91;5032654;28;20033;-67
2021/10/08 10:28:22;;;;;;;7.63;4.60;;;;;;;15.79;66.24;99874.97;5033384;28;20055;-67
2021/10/08 10:30:49;;;;;;;5.32;4.03;;;;;;;15.88;66.98;99881.91;5036237;28;20056;-66
2021/10/08 10:33:16;;;;;;;8.40;4.22;;;;;;;15.93;67.58;99873.09;5036575;28;20092;-67
2021/10/08 10:35:49;;;;;;;8.13;4.32;;;;;;;16.12;67.06;99866.75;5044810;28;20089;-66
2021/10/08 10:38:32;;;;;;;8.02;4.68;;;;;;;16.19;65.76;99866.72;5044000;28;20238;-66
2021/10/08 10:41:09;;;;;;;6.38;4.25;;;;;;;16.12;66.33;99855.00;5046696;28;20044;-68
2021/10/08 10:43:37;;;;;;;5.85;4.30;;;;;;;16.13;66.47;99865.69;5045752;28;20111;-67
2021/10/08 10:46:34;;;;;;;6.55;4.18;;;;;;;16.24;66.07;99869.66;5046779;28;20056;-66
2021/10/08 10:52:04;;;;;;;6.38;4.28;;;;;;;16.23;66.27;99867.97;5045592;28;20085;-67
2021/10/08 10:54:35;;;;;;;8.30;4.30;;;;;;;16.25;65.91;99867.78;5046585;28;20506;-66
2021/10/08 10:57:02;;;;;;;6.05;4.63;;;;;;;16.16;65.63;99850.75;5049513;28;20037;-67
2021/10/08 10:59:29;;;;;;;7.07;4.05;;;;;;;16.18;65.96;99849.50;5048894;28;20019;-65
2021/10/08 11:02:11;;;;;;;6.20;4.43;;;;;;;16.27;65.64;99863.78;5050173;28;20047;-65
2021/10/08 11:04:44;;;;;;;7.45;3.92;;;;;;;16.37;65.18;99861.44;5047099;28;20048;-66
2021/10/08 11:07:10;;;;;;;10.02;5.15;;;;;;;16.30;66.13;99857.06;5040652;28;20049;-66
2021/10/08 11:09:37;;;;;;;6.90;4.40;;;;;;;16.18;65.66;99844.03;5033408;28;20078;-66
2021/10/08 11:12:28;;;;;;;6.97;4.63;;;;;;;16.46;64.86;99859.28;5014334;28;20033;-67
2021/10/08 11:15:15;;;;;;;7.93;4.50;;;;;;;16.44;64.90;99862.22;5012494;28;20026;-66
2021/10/08 11:18:04;;;;;;;10.57;5.03;;;;;;;16.40;65.50;99852.81;5029029;28;20072;-68
2021/10/08 11:20:32;;;;;;;8.23;4.82;;;;;;;16.77;64.82;99852.25;5042284;28;20025;-67
2021/10/08 11:23:08;;;;;;;8.75;4.80;;;;;;;16.74;64.89;99853.50;5044926;28;20069;-66
2021/10/08 11:25:45;;;;;;;8.55;4.97;;;;;;;16.73;63.79;99846.34;5045056;28;20029;-67
2021/10/08 11:28:10;;;;;;;8.80;5.03;;;;;;;16.69;63.49;99845.13;5045890;28;20144;-66
2021/10/08 11:30:36;;;;;;;7.20;4.85;;;;;;;16.66;63.97;99845.53;5046097;28;20045;-68
2021/10/08 11:33:01;;;;;;;7.88;5.00;;;;;;;16.81;63.81;99832.47;5047855;28;20111;-67
2021/10/08 11:35:31;;;;;;;10.00;4.78;;;;;;;16.99;63.06;99828.16;5042485;28;20047;-66
2021/10/08 11:37:57;;;;;;;7.32;4.57;;;;;;;17.07;62.49;99816.97;5037579;28;20028;-67
2021/10/08 11:40:44;;;;;;;8.90;4.90;;;;;;;16.84;63.29;99834.75;5034838;28;20029;-66
2021/10/08 11:43:35;;;;;;;8.23;4.90;;;;;;;16.97;62.91;99825.63;5033064;28;20041;-68